Time;durP1;ratioP1;P1;durP2;ratioP2;P2;SDS_P1;SDS_P2;PMS_P1;PMS_P2;Temp;Humidity;BMP_temperature;BMP_pressure;BME280_temperature;BME280_humidity;BME280_pressure;Samples;Min_cycle;Max_cycle;Signal;HPM_P1;HPM_P2
2021/01/26 00:01:00;;;;;;;27.20;7.35;;;;;;;17.12;42.33;100848.22;5074628;28;20040;-69
2021/01/26 00:03:26;;;;;;;32.08;9.60;;;;;;;16.63;43.64;100838.53;5073941;28;20496;-69
2021/01/26 00:05:52;;;;;;;26.45;7.85;;;;;;;17.67;41.16;100840.63;5074873;28;20075;-67
2021/01/26 00:08:19;;;;;;;33.63;8.90;;;;;;;16.71;42.35;100862.47;5074126;28;20120;-66
2021/01/26 00:10:45;;;;;;;32.42;8.95;;;;;;;15.49;44.88;100847.34;5074473;28;20044;-69
2021/01/26 00:13:11;;;;;;;39.42;10.70;;;;;;;15.72;45.51;100844.97;5073822;28;20044;-67
2021/01/26 00:15:37;;;;;;;34.75;9.63;;;;;;;15.41;46.93;100854.91;5091274;28;20778;-66
2021/01/26 00:18:04;;;;;;;29.50;8.35;;;;;;;15.70;45.68;100861.38;5091890;28;20032;-67
2021/01/26 00:20:31;;;;;;;21.05;6.88;;;;;;;15.40;45.51;100858.66;5090866;28;20032;-66
2021/01/26 00:22:57;;;;;;;17.92;7.13;;;;;;;16.89;43.07;100856.09;5074147;28;20079;-67
2021/01/26 00:25:35;;;;;;;42.22;13.13;;;;;;;16.55;43.03;100860.47;5056372;28;20441;-67
2021/01/26 00:28:02;;;;;;;38.25;10.00;;;;;;;15.80;45.90;100866.19;5057164;28;20055;-68
2021/01/26 00:30:32;;;;;;;26.60;8.35;;;;;;;16.00;45.26;100857.03;5090971;28;20054;-66
2021/01/26 00:33:00;;;;;;;38.05;11.23;;;;;;;14.81;47.84;100864.53;5057003;28;20036;-69
2021/01/26 00:35:28;;;;;;;34.40;10.80;;;;;;;15.21;47.62;100882.91;5072600;28;20070;-67
2021/01/26 00:37:54;;;;;;;32.03;9.50;;;;;;;16.12;45.46;100876.75;5073725;28;20390;-67
2021/01/26 00:40:20;;;;;;;36.08;11.05;;;;;;;16.03;44.65;100862.78;5056164;28;20442;-66
2021/01/26 00:42:46;;;;;;;23.63;9.03;;;;;;;15.63;47.26;100880.31;5091709;28;20480;-69
2021/01/26 00:45:13;;;;;;;30.00;8.60;;;;;;;16.20;45.56;100872.88;5091779;28;20075;-68
2021/01/26 00:47:38;;;;;;;18.85;6.75;;;;;;;15.89;45.67;100878.31;5090574;28;20286;-68
2021/01/26 00:50:06;;;;;;;20.67;5.97;;;;;;;16.31;44.97;100882.06;5057163;28;20468;-68
2021/01/26 00:52:32;;;;;;;33.17;7.38;;;;;;;16.43;45.50;100879.38;5056010;28;20066;-69
2021/01/26 00:55:08;;;;;;;15.38;5.47;;;;;;;15.80;45.97;100877.00;5073749;28;20089;-69
2021/01/26 00:57:34;;;;;;;19.95;5.18;;;;;;;15.92;46.15;100882.44;5055876;28;20147;-68
2021/01/26 00:59:59;;;;;;;18.23;5.25;;;;;;;15.67;46.58;100877.16;5073587;28;20536;-69
2021/01/26 01:02:25;;;;;;;15.57;4.80;;;;;;;15.75;46.70;100882.25;5056348;28;20052;-68
2021/01/26 01:04:51;;;;;;;35.70;5.77;;;;;;;16.07;45.07;100892.00;5058142;28;20407;-69
2021/01/26 01:07:18;;;;;;;21.17;4.70;;;;;;;16.46;43.95;100893.22;5095597;28;20036;-69
2021/01/26 01:09:44;;;;;;;;;;;;;;;16.62;44.72;100897.09;5095419;28;20023;-68
2021/01/26 01:12:09;;;;;;;15.52;4.07;;;;;;;16.30;44.72;100910.09;5060892;28;19923;-68
2021/01/26 01:14:37;;;;;;;23.95;5.68;;;;;;;15.47;47.59;100908.72;5094517;28;20380;-68
2021/01/26 01:17:03;;;;;;;12.68;3.90;;;;;;;16.69;44.00;100913.19;5095584;28;20092;-68
2021/01/26 01:19:28;;;;;;;9.50;3.87;;;;;;;16.55;43.95;100912.59;5094809;28;20036;-67
2021/01/26 01:21:54;;;;;;;28.43;4.47;;;;;;;15.29;47.46;100912.28;5077940;28;20037;-68
2021/01/26 01:24:19;;;;;;;16.07;4.17;;;;;;;15.33;47.39;100908.06;5057193;28;20040;-61
2021/01/26 01:26:45;;;;;;;19.30;3.40;;;;;;;14.93;48.63;100924.66;5074632;28;20039;-69
2021/01/26 01:29:11;;;;;;;12.20;3.30;;;;;;;15.75;46.12;100906.53;5057316;28;20036;-68
2021/01/26 01:31:37;;;;;;;;;;;;;;;15.84;45.56;100920.50;5074614;28;20082;-68
2021/01/26 01:34:03;;;;;;;17.67;3.73;;;;;;;15.26;47.67;100912.72;5074785;28;19912;-68
2021/01/26 01:36:29;;;;;;;16.75;4.53;;;;;;;15.49;45.89;100914.72;5073947;28;20038;-68
2021/01/26 01:38:54;;;;;;;11.17;3.80;;;;;;;16.06;45.12;100934.31;5074867;28;20499;-68
2021/01/26 01:41:20;;;;;;;17.70;3.13;;;;;;;15.61;45.78;100927.44;5074690;28;20146;-69
2021/01/26 01:43:50;;;;;;;28.80;5.33;;;;;;;16.80;42.98;100940.41;5073725;28;20048;-69
2021/01/26 01:46:19;;;;;;;21.65;5.32;;;;;;;15.62;46.19;100940.69;5043800;28;20034;-68
2021/01/26 01:48:45;;;;;;;18.13;4.50;;;;;;;16.33;44.99;100940.16;5078374;28;20028;-69
2021/01/26 01:51:12;;;;;;;17.13;3.90;;;;;;;16.82;43.80;100951.81;5060204;28;20135;-70
2021/01/26 01:53:41;;;;;;;13.27;3.55;;;;;;;16.67;44.10;100958.50;5093732;28;20314;-69
2021/01/26 01:56:24;;;;;;;27.17;3.35;;;;;;;16.60;43.86;100960.47;5076933;28;20361;-69
2021/01/26 01:58:56;;;;;;;17.50;4.57;;;;;;;16.76;42.53;100967.09;5060331;28;20039;-68
2021/01/26 02:01:27;;;;;;;13.23;2.72;;;;;;;15.87;45.49;100955.09;5076774;28;20047;-69
2021/01/26 02:03:58;;;;;;;12.18;2.50;;;;;;;16.32;43.89;100962.78;5076586;28;20059;-68
2021/01/26 02:06:30;;;;;;;9.05;2.08;;;;;;;16.16;44.38;100969.69;5094591;28;20046;-62
2021/01/26 02:09:08;;;;;;;21.35;3.67;;;;;;;15.75;45.66;100957.75;5060347;28;20062;-67
2021/01/26 02:11:34;;;;;;;17.42;3.63;;;;;;;15.72;46.02;100969.00;5093491;28;20123;-68
2021/01/26 02:14:00;;;;;;;14.23;2.55;;;;;;;16.65;43.49;100978.69;5094500;28;20031;-68
2021/01/26 02:16:28;;;;;;;23.53;3.67;;;;;;;14.96;47.33;100977.25;5075571;28;20048;-63
2021/01/26 02:19:22;;;;;;;17.17;3.15;;;;;;;15.36;45.43;100978.72;5094256;28;20036;-67
2021/01/26 02:22:28;;;;;;;11.98;1.65;;;;;;;15.25;45.82;100972.19;5038782;28;20503;-68
2021/01/26 02:25:24;;;;;;;9.07;1.35;;;;;;;15.88;43.67;100973.75;5055803;28;20079;-67
2021/01/26 02:28:05;;;;;;;9.00;1.77;;;;;;;16.04;42.94;100983.13;5073102;28;20075;-67
2021/01/26 02:31:12;;;;;;;5.65;1.10;;;;;;;16.19;43.33;100982.69;5072866;28;20036;-66
2021/01/26 02:33:55;;;;;;;8.10;0.85;;;;;;;16.43;42.93;100990.88;5044016;28;20405;-67
2021/01/26 02:36:39;;;;;;;3.40;0.80;;;;;;;15.71;43.88;100992.41;5073768;28;20037;-68
2021/01/26 02:39:26;;;;;;;6.88;0.82;;;;;;;14.80;45.84;100990.22;5073687;28;20048;-69
2021/01/26 02:42:16;;;;;;;3.00;0.82;;;;;;;15.42;45.28;101010.16;5055084;28;20396;-68
2021/01/26 02:44:47;;;;;;;8.88;1.00;;;;;;;16.34;43.34;101009.25;5072748;28;20040;-70
2021/01/26 02:47:43;;;;;;;8.75;1.10;;;;;;;15.32;45.52;101008.81;5073739;28;20044;-69
2021/01/26 02:50:23;;;;;;;3.83;1.60;;;;;;;16.13;43.39;101010.56;5073728;28;20032;-68
2021/01/26 02:53:19;;;;;;;11.73;1.55;;;;;;;16.62;41.58;101015.91;5038279;28;20042;-69
2021/01/26 02:56:03;;;;;;;8.18;1.50;;;;;;;16.48;41.95;101015.28;5072481;28;20040;-69
2021/01/26 02:58:55;;;;;;;5.60;1.50;;;;;;;15.90;44.11;101031.00;5073118;28;20036;-62
2021/01/26 03:01:22;;;;;;;6.72;2.03;;;;;;;15.99;43.67;101011.81;5073378;28;20477;-68
2021/01/26 03:03:53;;;;;;;5.43;1.13;;;;;;;16.01;43.52;101015.13;5072277;28;20370;-68
2021/01/26 03:06:22;;;;;;;10.13;1.38;;;;;;;16.29;42.08;101022.63;5073092;28;20042;-69
2021/01/26 03:09:17;;;;;;;11.02;2.30;;;;;;;16.22;42.64;101023.78;5072148;28;20044;-69
2021/01/26 03:12:07;;;;;;;10.48;1.27;;;;;;;16.32;42.00;101035.66;5048533;28;20060;-68
2021/01/26 03:14:42;;;;;;;20.67;1.55;;;;;;;15.21;44.04;101028.38;5053810;28;20126;-62
2021/01/26 03:17:16;;;;;;;8.18;1.10;;;;;;;15.83;43.74;101032.13;5054969;28;20044;-68
2021/01/26 03:19:47;;;;;;;13.82;2.13;;;;;;;15.96;43.51;101039.25;5072263;28;20115;-68
2021/01/26 03:22:15;;;;;;;10.35;2.05;;;;;;;15.79;43.40;101029.03;5056494;28;20546;-69
2021/01/26 03:24:44;;;;;;;9.93;1.65;;;;;;;15.68;44.54;101044.09;5054724;28;20024;-69
2021/01/26 03:27:15;;;;;;;9.98;3.60;;;;;;;16.18;42.51;101045.81;5055420;28;20132;-69
2021/01/26 03:29:45;;;;;;;11.10;2.20;;;;;;;15.52;43.95;101044.69;5055191;28;20431;-69
2021/01/26 03:32:20;;;;;;;18.80;3.15;;;;;;;14.88;46.05;101056.44;5073186;28;20040;-68
2021/01/26 03:34:46;;;;;;;19.15;3.40;;;;;;;14.90;46.92;101051.66;5071828;28;20046;-68
2021/01/26 03:37:12;;;;;;;18.23;2.88;;;;;;;15.47;45.02;101056.97;5072329;28;20115;-70
2021/01/26 03:39:38;;;;;;;7.93;2.47;;;;;;;15.26;44.96;101068.97;5071473;28;20185;-69
2021/01/26 03:42:04;;;;;;;9.65;1.55;;;;;;;15.20;45.46;101061.75;5072044;28;20092;-70
2021/01/26 03:44:30;;;;;;;11.93;1.90;;;;;;;15.66;44.06;101075.00;5072822;28;20089;-70
2021/01/26 03:47:02;;;;;;;12.02;3.63;;;;;;;16.26;42.88;101060.88;5037099;28;20039;-69
2021/01/26 03:49:52;;;;;;;11.52;1.70;;;;;;;16.05;43.75;101067.56;5072106;28;20032;-69
2021/01/26 03:52:32;;;;;;;9.35;1.55;;;;;;;16.16;43.79;101074.91;5072201;28;20060;-68
2021/01/26 03:55:28;;;;;;;8.85;1.73;;;;;;;15.77;43.41;101076.97;5071874;28;20036;-68
2021/01/26 03:58:05;;;;;;;13.55;1.30;;;;;;;15.96;43.94;101079.72;5054186;28;20131;-68
2021/01/26 04:00:41;;;;;;;12.30;1.27;;;;;;;16.77;41.42;101076.75;5072262;28;20044;-67
2021/01/26 04:03:33;;;;;;;6.90;1.65;;;;;;;16.84;41.14;101082.03;5072153;28;20044;-67
2021/01/26 04:06:14;;;;;;;8.23;1.40;;;;;;;17.36;40.35;101088.72;5071533;28;20032;-67
2021/01/26 04:08:51;;;;;;;16.55;2.10;;;;;;;17.11;41.32;101087.06;5071235;28;20122;-67
2021/01/26 04:11:22;;;;;;;27.42;3.40;;;;;;;16.70;42.48;101098.47;5054152;28;20060;-68
2021/01/26 04:13:59;;;;;;;10.57;2.63;;;;;;;16.51;42.85;101095.00;5070838;28;20490;-69
2021/01/26 04:16:32;;;;;;;26.35;2.50;;;;;;;16.73;42.04;101102.59;5053809;28;20431;-69
2021/01/26 04:19:01;;;;;;;17.83;3.38;;;;;;;15.82;43.88;101109.47;5070916;28;20032;-68
2021/01/26 04:21:32;;;;;;;32.60;6.05;;;;;;;15.52;44.66;101102.13;5053750;28;20094;-68
2021/01/26 04:23:59;;;;;;;12.68;2.25;;;;;;;15.14;45.90;101103.91;5052874;28;20052;-68
2021/01/26 04:26:26;;;;;;;10.55;2.13;;;;;;;15.96;44.10;101114.78;5071636;28;20063;-68
2021/01/26 04:28:52;;;;;;;17.38;2.58;;;;;;;15.97;43.87;101119.13;5052938;28;20051;-68
2021/01/26 04:31:19;;;;;;;12.43;3.03;;;;;;;16.66;42.54;101115.34;5053668;28;20047;-68
2021/01/26 04:33:45;;;;;;;12.40;2.83;;;;;;;16.23;43.77;101127.94;5036387;28;20040;-69
2021/01/26 04:36:15;;;;;;;12.00;1.85;;;;;;;16.22;43.26;101119.00;5071708;28;20401;-68
2021/01/26 04:38:40;;;;;;;12.70;2.50;;;;;;;15.96;44.21;101126.38;5070641;28;20048;-63
2021/01/26 04:41:23;;;;;;;20.02;2.33;;;;;;;16.35;42.97;101128.81;5053481;28;20040;-69
2021/01/26 04:44:00;;;;;;;11.32;3.35;;;;;;;16.04;43.97;101130.66;5052664;28;20052;-68
2021/01/26 04:46:39;;;;;;;17.38;2.67;;;;;;;15.78;43.98;101129.84;5053478;28;20041;-69
2021/01/26 04:49:23;;;;;;;17.55;3.40;;;;;;;17.00;41.66;101143.53;5053178;28;20044;-69
2021/01/26 04:52:26;;;;;;;9.80;1.98;;;;;;;17.19;40.79;101154.28;5052620;28;20060;-68
2021/01/26 04:55:00;;;;;;;6.63;1.92;;;;;;;15.47;45.49;101174.72;5052304;28;20048;-67
2021/01/26 04:57:41;;;;;;;5.60;1.15;;;;;;;15.59;45.11;101161.38;5071168;28;20056;-67
2021/01/26 05:00:11;;;;;;;15.13;1.27;;;;;;;15.67;44.44;101149.44;5053152;28;20043;-69
2021/01/26 05:03:03;;;;;;;6.72;1.55;;;;;;;15.44;44.91;101156.28;5036831;28;20029;-68
2021/01/26 05:05:34;;;;;;;14.82;2.38;;;;;;;16.11;43.34;101160.25;5053269;28;20174;-69
2021/01/26 05:08:08;;;;;;;10.60;1.27;;;;;;;16.01;43.71;101153.50;5052991;28;20056;-68
2021/01/26 05:10:48;;;;;;;3.17;1.30;;;;;;;16.44;42.90;101164.41;5053165;28;20498;-68
2021/01/26 05:13:27;;;;;;;2.25;0.82;;;;;;;16.23;42.32;101163.03;5071131;28;20483;-68
2021/01/26 05:16:08;;;;;;;5.45;0.82;;;;;;;16.09;42.91;101167.75;5052178;28;20037;-68
2021/01/26 05:18:43;;;;;;;8.07;0.95;;;;;;;16.25;42.95;101171.72;5071065;28;20425;-69
2021/01/26 05:21:18;;;;;;;15.18;2.30;;;;;;;17.05;41.32;101164.47;5070844;28;20167;-68
2021/01/26 05:23:50;;;;;;;10.95;2.00;;;;;;;15.96;43.36;101183.00;5070561;28;20053;-61
2021/01/26 05:26:15;;;;;;;17.15;2.63;;;;;;;15.78;44.86;101176.50;5071335;28;20385;-68
2021/01/26 05:28:45;;;;;;;24.42;4.15;;;;;;;16.82;42.30;101167.88;5053414;28;20036;-69
2021/01/26 05:31:26;;;;;;;14.48;1.88;;;;;;;16.07;43.65;101176.06;5053212;28;20279;-68
2021/01/26 05:33:53;;;;;;;8.68;1.85;;;;;;;16.86;41.81;101175.28;5052446;28;20048;-68
2021/01/26 05:36:19;;;;;;;13.40;2.95;;;;;;;15.85;43.55;101184.53;5071093;28;20032;-69
2021/01/26 05:38:44;;;;;;;12.07;2.10;;;;;;;16.69;42.49;101180.53;5070454;28;20051;-62
2021/01/26 05:41:13;;;;;;;12.50;1.90;;;;;;;16.29;43.03;101186.41;5053005;28;20457;-68
2021/01/26 05:43:40;;;;;;;10.25;1.90;;;;;;;16.33;42.70;101191.13;5071043;28;20033;-69
2021/01/26 05:46:08;;;;;;;12.13;1.50;;;;;;;16.85;41.71;101187.16;5052074;28;20082;-69
2021/01/26 05:48:50;;;;;;;9.73;1.20;;;;;;;17.09;41.27;101195.38;5070840;28;20127;-69
2021/01/26 05:51:20;;;;;;;12.80;3.33;;;;;;;16.84;41.90;101207.13;5073347;28;20395;-68
2021/01/26 05:53:55;;;;;;;7.18;1.83;;;;;;;18.00;39.51;101207.81;5074178;28;20067;-62
2021/01/26 05:56:23;;;;;;;8.73;1.38;;;;;;;17.56;40.45;101219.00;5056522;28;20052;-70
2021/01/26 05:58:48;;;;;;;13.05;1.85;;;;;;;17.71;39.97;101213.13;5055537;28;20028;-60
2021/01/26 06:01:23;;;;;;;18.08;2.22;;;;;;;18.13;39.14;101214.91;5057482;28;20418;-69
2021/01/26 06:04:04;;;;;;;9.25;1.92;;;;;;;17.97;39.66;101223.69;5073571;28;20040;-63
2021/01/26 06:06:30;;;;;;;6.07;1.60;;;;;;;17.73;40.03;101224.53;5074222;28;20103;-69
2021/01/26 06:08:57;;;;;;;14.27;2.67;;;;;;;17.52;40.65;101231.31;5055421;28;20425;-69
2021/01/26 06:11:28;;;;;;;9.38;2.90;;;;;;;17.86;39.82;101236.16;5074206;28;20134;-70
2021/01/26 06:14:14;;;;;;;13.07;2.28;;;;;;;17.79;40.32;101233.59;5038937;28;20089;-69
2021/01/26 06:16:41;;;;;;;13.68;1.52;;;;;;;17.98;40.00;101241.56;5074346;28;20048;-69
2021/01/26 06:19:07;;;;;;;18.48;6.88;;;;;;;18.62;38.78;101241.66;5055212;28;20048;-69
2021/01/26 06:21:48;;;;;;;10.55;2.67;;;;;;;17.92;39.92;101246.88;5039515;28;20064;-69
2021/01/26 06:24:15;;;;;;;22.85;1.92;;;;;;;18.74;38.81;101251.63;5107432;28;20047;-69
2021/01/26 06:26:49;;;;;;;21.10;2.75;;;;;;;18.53;39.13;101269.34;5096095;28;20028;-70
2021/01/26 06:29:28;;;;;;;11.02;1.73;;;;;;;18.35;39.36;101271.13;5095966;28;20036;-69
2021/01/26 06:32:11;;;;;;;15.07;2.38;;;;;;;18.42;39.29;101277.25;5092112;28;20047;-67
2021/01/26 06:35:28;;;;;;;19.23;2.72;;;;;;;18.40;39.58;101271.25;5114082;28;20031;-67
2021/01/26 06:38:15;;;;;;;15.95;2.25;;;;;;;18.10;39.85;101277.63;5022662;28;20165;-67
2021/01/26 06:40:55;;;;;;;12.35;1.35;;;;;;;17.63;40.78;101283.75;5096643;28;20048;-67
2021/01/26 06:43:52;;;;;;;21.27;2.65;;;;;;;17.53;40.64;101278.94;5093594;28;20540;-68
2021/01/26 06:46:50;;;;;;;11.82;1.80;;;;;;;16.29;43.66;101283.56;5090635;28;20055;-69
2021/01/26 06:49:45;;;;;;;9.70;2.28;;;;;;;17.08;42.22;101282.88;5094014;28;20097;-70
2021/01/26 06:52:39;;;;;;;9.93;2.03;;;;;;;17.42;41.86;101293.25;5095723;28;20051;-69
2021/01/26 06:55:30;;;;;;;23.33;1.98;;;;;;;17.20;41.92;101301.84;5092755;28;20043;-64
2021/01/26 06:58:14;;;;;;;16.33;2.10;;;;;;;17.62;40.86;101303.75;5102264;28;20123;-69
2021/01/26 07:01:01;;;;;;;8.38;2.20;;;;;;;16.41;43.46;101300.69;5084108;28;20036;-69
2021/01/26 07:03:42;;;;;;;20.77;3.10;;;;;;;15.99;44.99;101297.75;5084633;28;20046;-68
2021/01/26 07:06:45;;;;;;;16.40;2.08;;;;;;;16.20;44.28;101307.28;5103256;28;20028;-68
2021/01/26 07:09:41;;;;;;;9.73;1.95;;;;;;;16.36;43.80;101319.38;5095182;28;20044;-68
2021/01/26 07:12:53;;;;;;;16.67;2.08;;;;;;;16.10;43.57;101325.88;5092581;28;20036;-69
2021/01/26 07:15:32;;;;;;;14.00;2.97;;;;;;;16.11;44.09;101322.94;5092758;28;20484;-69
2021/01/26 07:18:09;;;;;;;14.20;2.17;;;;;;;16.26;43.85;101336.13;5074637;28;20036;-68
2021/01/26 07:20:51;;;;;;;18.58;2.80;;;;;;;16.94;42.42;101341.66;5094616;28;20040;-69
2021/01/26 07:23:50;;;;;;;17.63;2.70;;;;;;;17.04;42.04;101346.56;5087337;28;20472;-69
2021/01/26 07:26:54;;;;;;;19.20;3.83;;;;;;;16.71;42.94;101353.94;5093087;28;20856;-68
2021/01/26 07:29:23;;;;;;;11.45;2.75;;;;;;;16.55;42.88;101360.75;5092821;28;20352;-69
2021/01/26 07:32:04;;;;;;;15.68;3.13;;;;;;;16.91;42.51;101369.91;5088672;28;20039;-69
2021/01/26 07:34:42;;;;;;;16.95;2.65;;;;;;;17.11;41.70;101365.38;5057340;28;20484;-69
2021/01/26 07:37:18;;;;;;;14.15;3.10;;;;;;;17.00;42.12;101367.78;5073930;28;20456;-69
2021/01/26 07:40:13;;;;;;;24.70;5.00;;;;;;;17.59;40.93;101379.94;5074759;28;20475;-70
2021/01/26 07:43:16;;;;;;;21.95;3.33;;;;;;;17.26;41.51;101387.44;5074631;28;20081;-69
2021/01/26 07:46:04;;;;;;;17.55;2.80;;;;;;;17.33;41.43;101390.91;5076434;28;20290;-69
2021/01/26 07:48:56;;;;;;;17.05;2.88;;;;;;;17.05;42.29;101386.84;5072400;28;20044;-70
2021/01/26 07:51:27;;;;;;;16.45;2.83;;;;;;;16.88;41.84;101399.28;5054171;28;20032;-69
2021/01/26 07:53:53;;;;;;;12.02;2.20;;;;;;;17.40;41.30;101395.38;5058880;28;20436;-69
2021/01/26 07:56:33;;;;;;;29.13;2.80;;;;;;;17.01;41.49;101407.25;5075381;28;20082;-70
2021/01/26 07:59:04;;;;;;;13.30;3.55;;;;;;;17.00;41.64;101413.72;5074538;28;20043;-63
2021/01/26 08:01:42;;;;;;;14.60;2.10;;;;;;;17.67;40.36;101413.94;5057012;28;20031;-70
2021/01/26 08:04:07;;;;;;;;;;;;;;;16.99;40.80;101420.16;5072825;28;20043;-69
2021/01/26 08:06:36;;;;;;;15.20;2.97;;;;;;;16.84;41.56;101425.06;5091610;28;19908;-71
2021/01/26 08:09:04;;;;;;;8.43;2.10;;;;;;;17.04;41.42;101423.00;5072257;28;20145;-70
2021/01/26 08:11:30;;;;;;;15.93;1.88;;;;;;;16.73;41.32;101426.66;5091352;28;20027;-69
2021/01/26 08:13:59;;;;;;;15.07;3.00;;;;;;;17.01;40.69;101423.47;5091171;28;20107;-63
2021/01/26 08:16:51;;;;;;;7.90;2.45;;;;;;;17.43;40.26;101435.47;5055705;28;20076;-70
2021/01/26 08:19:39;;;;;;;8.05;1.90;;;;;;;17.44;40.42;101432.56;5090028;28;20040;-69
2021/01/26 08:22:21;;;;;;;9.30;1.40;;;;;;;18.27;38.69;101439.34;5091117;28;20043;-71
2021/01/26 08:24:48;;;;;;;15.40;1.80;;;;;;;17.72;39.42;101438.44;5073674;28;20058;-71
2021/01/26 08:27:28;;;;;;;13.35;1.42;;;;;;;17.18;40.35;101448.03;5060021;28;20043;-71
2021/01/26 08:29:58;;;;;;;13.38;1.98;;;;;;;17.74;39.36;101456.09;5039826;28;20514;-70
2021/01/26 08:32:27;;;;;;;7.43;1.90;;;;;;;17.71;40.01;101453.84;5086711;28;20041;-69
2021/01/26 08:35:04;;;;;;;6.47;1.50;;;;;;;16.53;41.83;101470.00;5085308;28;20496;-71
2021/01/26 08:37:41;;;;;;;13.27;3.38;;;;;;;17.46;40.71;101468.31;5098574;28;20023;-70
2021/01/26 08:40:27;;;;;;;8.18;2.17;;;;;;;17.61;40.38;101469.78;5101332;28;20114;-69
2021/01/26 08:43:02;;;;;;;20.55;1.85;;;;;;;16.98;41.67;101467.16;5041048;28;20048;-69
2021/01/26 08:45:28;;;;;;;10.60;1.50;;;;;;;17.81;40.00;101477.66;5096797;28;20479;-71
2021/01/26 08:48:02;;;;;;;8.57;1.70;;;;;;;16.78;41.35;101478.94;5100455;28;20028;-70
2021/01/26 08:50:57;;;;;;;9.82;2.00;;;;;;;17.20;41.70;101489.19;5100479;28;20039;-70
2021/01/26 08:53:34;;;;;;;9.70;2.15;;;;;;;17.33;41.20;101493.63;5079451;28;20051;-70
2021/01/26 08:56:23;;;;;;;9.40;1.95;;;;;;;17.18;41.47;101493.16;5096470;28;20036;-63
2021/01/26 08:58:55;;;;;;;11.40;1.55;;;;;;;17.45;40.70;101498.25;5067200;28;20432;-71
2021/01/26 09:01:24;;;;;;;7.63;1.60;;;;;;;17.22;41.32;101490.84;5097407;28;20627;-70
2021/01/26 09:03:55;;;;;;;10.38;1.50;;;;;;;17.84;40.60;101506.94;5100843;28;20118;-70
2021/01/26 09:06:26;;;;;;;13.65;2.38;;;;;;;17.08;42.03;101506.34;5099882;28;20602;-69
2021/01/26 09:08:55;;;;;;;10.80;1.80;;;;;;;17.05;42.31;101510.31;5111708;28;20476;-70
2021/01/26 09:11:27;;;;;;;8.75;1.95;;;;;;;16.29;43.29;101519.19;5105050;28;20495;-71
2021/01/26 09:14:00;;;;;;;9.82;2.22;;;;;;;17.28;42.59;101515.06;5073316;28;20035;-71
2021/01/26 09:16:28;;;;;;;10.57;2.35;;;;;;;17.31;41.72;101513.81;5089573;28;20072;-67
2021/01/26 09:19:02;;;;;;;10.32;2.00;;;;;;;17.44;41.61;101516.38;5091511;28;20048;-71
2021/01/26 09:21:31;;;;;;;8.15;1.83;;;;;;;17.88;40.52;101534.38;5090281;28;20059;-72
2021/01/26 09:23:57;;;;;;;13.35;2.53;;;;;;;18.09;39.99;101535.78;5088844;28;20033;-71
2021/01/26 09:26:25;;;;;;;11.65;2.53;;;;;;;18.38;39.52;101546.03;5091426;28;20039;-71
2021/01/26 09:28:51;;;;;;;9.75;1.70;;;;;;;18.05;39.87;101540.84;5056872;28;20043;-68
2021/01/26 09:31:21;;;;;;;11.98;2.08;;;;;;;17.37;41.48;101539.13;5073087;28;20033;-60
2021/01/26 09:33:46;;;;;;;9.82;2.17;;;;;;;18.27;39.84;101558.47;5075420;28;20036;-69
2021/01/26 09:36:15;;;;;;;11.03;2.27;;;;;;;17.98;40.63;101560.88;5074000;28;20081;-69
2021/01/26 09:38:48;;;;;;;5.22;1.50;;;;;;;17.61;41.71;101567.13;5074684;28;20115;-69
2021/01/26 09:41:34;;;;;;;13.95;4.63;;;;;;;17.75;41.76;101565.94;5055556;28;20028;-69
2021/01/26 09:44:09;;;;;;;13.23;2.28;;;;;;;17.56;41.51;101567.00;5056618;28;20044;-70
2021/01/26 09:46:39;;;;;;;6.78;2.05;;;;;;;18.03;40.45;101575.41;5073837;28;20094;-69
2021/01/26 09:49:10;;;;;;;11.07;1.88;;;;;;;18.71;39.58;101575.31;5089507;28;20024;-62
2021/01/26 09:51:58;;;;;;;7.45;1.92;;;;;;;19.71;38.27;101580.06;5076564;28;20032;-70
2021/01/26 09:54:32;;;;;;;12.95;2.30;;;;;;;18.94;38.79;101589.97;5093562;28;20503;-69
2021/01/26 09:56:59;;;;;;;12.75;1.88;;;;;;;18.98;39.36;101591.19;5094619;28;20043;-71
2021/01/26 09:59:28;;;;;;;12.82;2.72;;;;;;;18.71;39.66;101594.28;5086017;28;20048;-69
2021/01/26 10:01:55;;;;;;;15.05;2.17;;;;;;;18.62;39.06;101591.09;5099141;28;20111;-71
2021/01/26 10:04:22;;;;;;;10.10;1.88;;;;;;;19.87;37.94;101593.97;5093080;28;20040;-69
2021/01/26 10:06:49;;;;;;;10.98;1.90;;;;;;;18.98;39.42;101609.28;5084092;28;20523;-70
2021/01/26 10:09:27;;;;;;;;;;;;;;;19.65;38.61;101599.22;5104379;28;20051;-70
2021/01/26 10:12:14;;;;;;;13.02;1.58;;;;;;;20.22;37.38;101609.38;5102155;28;19927;-70
2021/01/26 10:14:39;;;;;;;14.55;2.67;;;;;;;19.73;37.74;101610.53;5101673;28;20101;-69
2021/01/26 10:17:12;;;;;;;7.30;1.60;;;;;;;19.59;38.25;101607.22;5102581;28;20043;-63
2021/01/26 10:19:38;;;;;;;11.02;2.13;;;;;;;19.45;38.76;101606.63;5083959;28;20115;-70
2021/01/26 10:22:19;;;;;;;10.00;2.85;;;;;;;18.15;40.27;101613.38;5102855;28;20068;-71
2021/01/26 10:24:45;;;;;;;13.73;2.78;;;;;;;19.29;38.79;101610.06;5085178;28;20192;-70
2021/01/26 10:27:21;;;;;;;9.18;2.22;;;;;;;19.77;38.08;101627.13;5101063;28;20559;-70
2021/01/26 10:29:47;;;;;;;11.05;2.35;;;;;;;19.37;38.91;101619.72;5094687;28;20028;-70
2021/01/26 10:32:36;;;;;;;15.63;2.30;;;;;;;20.79;37.46;101621.25;5091511;28;20088;-70
2021/01/26 10:35:01;;;;;;;12.85;2.33;;;;;;;20.90;36.45;101627.72;5057783;28;20055;-70
2021/01/26 10:37:30;;;;;;;8.63;2.20;;;;;;;21.18;37.40;101610.50;5073202;28;20630;-70
2021/01/26 10:40:14;;;;;;;10.70;1.90;;;;;;;21.13;37.09;101615.03;5073992;28;20040;-71
2021/01/26 10:42:44;;;;;;;6.63;1.75;;;;;;;21.60;34.87;101622.00;5072953;28;20048;-70
2021/01/26 10:45:11;;;;;;;8.77;2.00;;;;;;;20.31;36.32;101613.34;5069732;28;20123;-63
2021/01/26 10:47:40;;;;;;;8.68;1.48;;;;;;;19.93;36.48;101614.75;5073919;28;20103;-71
2021/01/26 10:50:27;;;;;;;9.75;2.50;;;;;;;21.06;35.21;101612.47;5052027;28;20539;-70
2021/01/26 10:52:53;;;;;;;11.07;2.50;;;;;;;21.01;35.22;101621.41;5072221;28;20043;-70
2021/01/26 10:55:21;;;;;;;10.77;2.78;;;;;;;21.23;34.54;101617.94;5090924;28;20040;-68
2021/01/26 10:57:48;;;;;;;13.23;2.47;;;;;;;21.40;35.23;101619.78;5089445;28;20040;-70
2021/01/26 11:00:18;;;;;;;11.45;2.70;;;;;;;20.94;36.19;101625.34;5072472;28;20059;-68
2021/01/26 11:02:44;;;;;;;19.77;3.20;;;;;;;20.73;36.83;101622.25;5091687;28;20123;-70
2021/01/26 11:05:12;;;;;;;11.60;3.00;;;;;;;21.47;34.53;101628.63;5091567;28;20531;-62
2021/01/26 11:07:39;;;;;;;14.40;3.05;;;;;;;19.98;37.83;101630.31;5056986;28;20059;-70
2021/01/26 11:10:05;;;;;;;;;;;;;;;19.90;39.69;101629.59;5073939;28;20543;-71
2021/01/26 11:12:30;;;;;;;12.57;4.13;;;;;;;19.60;39.96;101630.56;5072667;28;20307;-71
2021/01/26 11:14:56;;;;;;;14.10;3.03;;;;;;;19.87;38.51;101624.66;5091361;28;20157;-71
2021/01/26 11:17:23;;;;;;;16.50;3.70;;;;;;;19.32;39.29;101621.25;5073718;28;20063;-71
2021/01/26 11:19:48;;;;;;;;;;;;;;;19.57;39.54;101622.09;5074967;28;20277;-70
2021/01/26 11:22:15;;;;;;;17.50;4.60;;;;;;;20.04;38.01;101629.34;5094264;28;19916;-71
2021/01/26 11:24:42;;;;;;;16.70;4.43;;;;;;;19.39;39.44;101625.75;5093299;28;20040;-70
2021/01/26 11:27:08;;;;;;;10.75;3.20;;;;;;;19.15;40.09;101626.56;5052392;28;20188;-63
2021/01/26 11:29:34;;;;;;;17.23;3.45;;;;;;;20.32;37.82;101620.41;5056254;28;20024;-71
2021/01/26 11:32:00;;;;;;;13.80;3.47;;;;;;;20.62;35.86;101618.53;5073305;28;20043;-69
2021/01/26 11:34:26;;;;;;;13.40;2.45;;;;;;;20.37;37.21;101627.00;5070045;28;20040;-70
2021/01/26 11:36:51;;;;;;;12.60;2.07;;;;;;;20.27;37.58;101627.63;5091444;28;20055;-71
2021/01/26 11:39:17;;;;;;;9.70;2.30;;;;;;;19.16;37.31;101624.69;5091875;28;20271;-71
2021/01/26 11:41:42;;;;;;;4.72;1.30;;;;;;;20.25;35.72;101624.34;5057518;28;20104;-70
2021/01/26 11:44:08;;;;;;;4.97;1.03;;;;;;;19.67;36.95;101619.59;5092374;28;20073;-63
2021/01/26 11:46:34;;;;;;;3.33;0.90;;;;;;;19.83;37.45;101623.47;5091595;28;20458;-70
2021/01/26 11:49:00;;;;;;;12.13;2.05;;;;;;;18.91;37.54;101623.78;5073293;28;20044;-71
2021/01/26 11:51:25;;;;;;;5.38;1.10;;;;;;;18.19;39.24;101625.38;5091408;28;20513;-71
2021/01/26 11:53:51;;;;;;;5.85;0.98;;;;;;;18.33;38.27;101627.94;5074236;28;20438;-71